createdAt,value
2023-05-21T00:00:00.802Z,56.3648
2023-05-21T00:01:02.649Z,56.3250
2023-05-21T00:02:04.474Z,56.2878
2023-05-21T00:03:06.445Z,56.3330
2023-05-21T00:04:08.165Z,56.4126
2023-05-21T00:05:11.082Z,56.4119
2023-05-21T00:06:11.866Z,56.3663
2023-05-21T00:07:13.642Z,56.3336
2023-05-21T00:08:15.564Z,56.3288
2023-05-21T00:09:17.322Z,56.3473
2023-05-21T00:10:19.163Z,56.3671
2023-05-21T00:11:21.008Z,56.3879
2023-05-21T00:12:22.829Z,56.4044
2023-05-21T00:13:24.654Z,56.3658
2023-05-21T00:14:26.481Z,56.3104
2023-05-21T00:15:28.333Z,56.2731
2023-05-21T00:16:30.274Z,56.2771
2023-05-21T00:17:32.029Z,56.2849
2023-05-21T00:18:33.838Z,56.3058
2023-05-21T00:19:35.642Z,56.3103
2023-05-21T00:20:37.477Z,56.2815
2023-05-21T00:21:39.323Z,56.3185
2023-05-21T00:22:41.184Z,56.3624
2023-05-21T00:23:42.994Z,56.3872
2023-05-21T00:24:44.847Z,56.3424
2023-05-21T00:25:46.650Z,56.2843
2023-05-21T00:26:48.516Z,56.2419
2023-05-21T00:27:50.320Z,56.1951
2023-05-21T00:28:52.170Z,56.1560
2023-05-21T00:29:54.028Z,56.1346
2023-05-21T00:30:55.832Z,56.1438
2023-05-21T00:31:57.713Z,56.1486
2023-05-21T00:32:59.510Z,56.1677
2023-05-21T00:34:01.323Z,56.1744
2023-05-21T00:35:03.175Z,56.1371
2023-05-21T00:36:05.024Z,56.0682
2023-05-21T00:37:06.836Z,56.0075
2023-05-21T00:38:08.695Z,55.9595
2023-05-21T00:39:10.486Z,55.9426
2023-05-21T00:40:12.312Z,55.9894
2023-05-21T00:41:14.163Z,56.0482
2023-05-21T00:42:16.048Z,56.0417
2023-05-21T00:43:17.819Z,56.0442
2023-05-21T00:44:19.723Z,56.0454
2023-05-21T00:45:21.493Z,56.0304
2023-05-21T00:46:23.357Z,56.0117
2023-05-21T00:47:25.190Z,55.9924
2023-05-21T00:48:27.006Z,56.0502
2023-05-21T00:49:28.804Z,56.0262
2023-05-21T00:50:30.634Z,55.9726
2023-05-21T00:51:32.481Z,55.9076
2023-05-21T00:52:34.323Z,55.8888
2023-05-21T00:53:36.136Z,55.7929
2023-05-21T00:54:37.971Z,55.7441
2023-05-21T00:55:39.792Z,55.7155
2023-05-21T00:56:41.658Z,55.7325
2023-05-21T00:57:43.472Z,55.7037
2023-05-21T00:58:45.293Z,55.6679
2023-05-21T00:59:47.149Z,55.6710
2023-05-21T01:00:48.973Z,55.6920
2023-05-21T01:01:50.809Z,55.7061
2023-05-21T01:02:52.691Z,55.7041
2023-05-21T01:03:54.468Z,55.6927
2023-05-21T01:04:56.328Z,55.7725
2023-05-21T01:05:58.114Z,55.7821
2023-05-21T01:06:59.963Z,55.7637
2023-05-21T01:08:01.828Z,55.7250
2023-05-21T01:09:04.957Z,55.7533
2023-05-21T01:10:05.553Z,55.7276
2023-05-21T01:11:07.304Z,55.6980
2023-05-21T01:12:09.128Z,55.6458
2023-05-21T01:13:10.988Z,55.6274
2023-05-21T01:14:12.874Z,55.6330
2023-05-21T01:15:14.641Z,55.6298
2023-05-21T01:16:16.523Z,55.6651
2023-05-21T01:17:18.380Z,55.7257
2023-05-21T01:18:20.203Z,55.7399
2023-05-21T01:19:22.045Z,55.6952
2023-05-21T01:20:23.836Z,55.6543
2023-05-21T01:21:25.654Z,55.6481
2023-05-21T01:22:27.508Z,55.6654
2023-05-21T01:23:29.377Z,55.6143
2023-05-21T01:24:31.167Z,55.5931
2023-05-21T01:25:33.007Z,55.5494
2023-05-21T01:26:34.847Z,55.5448
2023-05-21T01:27:36.683Z,55.5308
2023-05-21T01:28:38.539Z,55.5164
2023-05-21T01:29:40.338Z,55.5465
2023-05-21T01:30:42.186Z,55.6172
2023-05-21T01:31:44.022Z,55.6671
2023-05-21T01:32:45.878Z,55.6773
2023-05-21T01:33:47.738Z,55.6330
2023-05-21T01:34:49.555Z,55.6084
2023-05-21T01:35:51.378Z,55.6305
2023-05-21T01:36:53.190Z,55.7148
2023-05-21T01:37:55.036Z,55.7193
2023-05-21T01:38:56.869Z,55.7385
2023-05-21T01:39:58.702Z,55.6689
2023-05-21T01:41:00.560Z,55.6262
2023-05-21T01:42:02.377Z,55.5676
2023-05-21T01:43:04.189Z,55.5112
2023-05-21T01:44:06.069Z,55.4888
2023-05-21T01:45:07.873Z,55.5139
2023-05-21T01:46:09.709Z,55.5904
2023-05-21T01:47:11.586Z,55.6530
2023-05-21T01:48:13.413Z,55.7172
2023-05-21T01:49:15.208Z,55.6672
2023-05-21T01:50:17.039Z,55.6135
2023-05-21T01:51:18.888Z,55.6116
2023-05-21T01:52:20.712Z,55.6375
2023-05-21T01:53:22.548Z,55.6017
2023-05-21T01:54:24.412Z,55.5848
2023-05-21T01:55:26.233Z,55.5913
2023-05-21T01:56:28.039Z,55.5899
2023-05-21T01:57:29.942Z,55.6141
2023-05-21T01:58:31.723Z,55.5791
2023-05-21T01:59:33.547Z,55.6297
2023-05-21T02:00:35.396Z,55.6068
2023-05-21T02:01:37.301Z,55.6158
2023-05-21T02:02:39.084Z,55.6398
2023-05-21T02:03:41.084Z,55.5990
2023-05-21T02:04:42.726Z,55.6171
2023-05-21T02:05:44.555Z,55.5793
2023-05-21T02:06:46.396Z,55.5303
2023-05-21T02:07:48.221Z,55.5121
2023-05-21T02:08:50.042Z,55.4807
2023-05-21T02:09:51.895Z,55.4894
2023-05-21T02:11:01.288Z,55.4980
2023-05-21T02:11:55.555Z,55.6018
2023-05-21T02:12:57.408Z,55.5965
2023-05-21T02:13:59.228Z,55.5832
2023-05-21T02:15:01.086Z,55.6075
2023-05-21T02:16:02.934Z,55.5943
2023-05-21T02:17:04.781Z,55.5484
2023-05-21T02:18:06.623Z,55.5325
2023-05-21T02:19:08.451Z,55.5305
2023-05-21T02:20:10.276Z,55.5192
2023-05-21T02:21:12.089Z,55.4911
2023-05-21T02:22:13.969Z,55.4886
2023-05-21T02:23:15.790Z,55.4880
2023-05-21T02:24:17.608Z,55.5239
2023-05-21T02:25:19.462Z,55.5386
2023-05-21T02:26:21.257Z,55.5276
2023-05-21T02:27:23.108Z,55.5589
2023-05-21T02:28:24.973Z,55.6010
2023-05-21T02:29:26.812Z,55.6326
2023-05-21T02:30:28.688Z,55.6240
2023-05-21T02:31:30.428Z,55.5993
2023-05-21T02:32:32.343Z,55.6155
2023-05-21T02:33:34.169Z,55.5827
2023-05-21T02:34:35.942Z,55.5833
2023-05-21T02:35:37.990Z,55.6317
2023-05-21T02:36:39.635Z,55.5852
2023-05-21T02:37:41.454Z,55.5234
2023-05-21T02:38:43.293Z,55.4803
2023-05-21T02:39:45.115Z,55.4997
2023-05-21T02:40:54.434Z,55.4966
2023-05-21T02:41:48.774Z,55.5195
2023-05-21T02:42:50.599Z,55.5099
2023-05-21T02:43:52.470Z,55.4557
2023-05-21T02:44:54.279Z,55.4416
2023-05-21T02:45:56.146Z,55.4446
2023-05-21T02:46:57.927Z,55.4239
2023-05-21T02:47:59.863Z,55.4851
2023-05-21T02:49:01.609Z,55.4887
2023-05-21T02:50:03.442Z,55.4943
2023-05-21T02:51:05.259Z,55.4860
2023-05-21T02:52:07.145Z,55.5396
2023-05-21T02:53:08.936Z,55.5564
2023-05-21T02:54:10.756Z,55.5563
2023-05-21T02:55:12.624Z,55.5003
2023-05-21T02:56:14.452Z,55.4614
2023-05-21T02:57:16.323Z,55.3801
2023-05-21T02:58:18.091Z,55.3298
2023-05-21T02:59:19.954Z,55.3055
2023-05-21T03:00:21.762Z,55.3137
2023-05-21T03:01:23.714Z,55.2874
2023-05-21T03:02:25.558Z,55.2841
2023-05-21T03:03:27.460Z,55.2834
2023-05-21T03:04:29.113Z,55.2800
2023-05-21T03:05:30.938Z,55.2501
2023-05-21T03:06:32.775Z,55.2160
2023-05-21T03:07:34.635Z,55.1832
2023-05-21T03:08:36.477Z,55.1802
2023-05-21T03:09:38.289Z,55.2110
2023-05-21T03:10:40.126Z,55.2635
2023-05-21T03:11:41.989Z,55.2638
2023-05-21T03:12:43.776Z,55.2340
2023-05-21T03:13:45.653Z,55.1737
2023-05-21T03:14:47.464Z,55.1108
2023-05-21T03:15:49.290Z,55.0768
2023-05-21T03:16:51.152Z,55.0827
2023-05-21T03:17:53.004Z,55.1475
2023-05-21T03:18:54.825Z,55.0820
2023-05-21T03:19:56.653Z,55.0076
2023-05-21T03:20:58.474Z,54.9707
2023-05-21T03:22:00.298Z,54.9332
2023-05-21T03:23:02.138Z,54.8752
2023-05-21T03:24:03.972Z,54.8776
2023-05-21T03:25:05.798Z,54.8907
2023-05-21T03:26:07.626Z,54.8720
2023-05-21T03:27:09.472Z,54.8771
2023-05-21T03:28:11.302Z,54.8389
2023-05-21T03:29:13.203Z,54.8109
2023-05-21T03:30:15.056Z,54.8092
2023-05-21T03:31:16.885Z,54.8374
2023-05-21T03:32:18.771Z,54.8444
2023-05-21T03:33:20.546Z,54.8275
2023-05-21T03:34:22.371Z,54.7963
2023-05-21T03:35:24.201Z,54.8176
2023-05-21T03:36:26.047Z,54.8968
2023-05-21T03:37:27.883Z,54.8778
2023-05-21T03:38:29.708Z,54.8766
2023-05-21T03:39:31.541Z,54.8361
2023-05-21T03:40:33.378Z,54.8276
2023-05-21T03:41:35.227Z,54.8363
2023-05-21T03:42:37.061Z,54.8292
2023-05-21T03:43:46.413Z,54.8255
2023-05-21T03:44:40.746Z,54.7960
2023-05-21T03:45:44.272Z,54.7692
2023-05-21T03:46:44.414Z,54.7583
2023-05-21T03:47:46.266Z,54.7911
2023-05-21T03:48:48.066Z,54.8195
2023-05-21T03:49:49.917Z,54.7940
2023-05-21T03:50:51.788Z,54.7798
2023-05-21T03:51:53.576Z,54.7751
2023-05-21T03:52:55.407Z,54.7690
2023-05-21T03:53:57.256Z,54.7714
2023-05-21T03:54:59.096Z,54.7551
2023-05-21T03:56:00.931Z,54.7522
2023-05-21T03:57:02.800Z,54.7785
2023-05-21T03:58:04.611Z,54.8146
2023-05-21T03:59:06.437Z,54.8043
2023-05-21T04:00:08.295Z,54.8086
2023-05-21T04:01:10.119Z,54.7880
2023-05-21T04:02:11.977Z,54.8515
2023-05-21T04:03:13.846Z,54.9130
2023-05-21T04:04:15.730Z,54.9965
2023-05-21T04:05:17.461Z,55.0658
2023-05-21T04:06:19.314Z,55.0737
2023-05-21T04:07:21.128Z,55.0598
2023-05-21T04:08:23.002Z,55.1147
2023-05-21T04:09:24.825Z,55.1118
2023-05-21T04:10:26.640Z,55.1120
2023-05-21T04:11:28.487Z,55.1010
2023-05-21T04:12:30.306Z,55.0626
2023-05-21T04:13:32.146Z,54.9931
2023-05-21T04:14:34.015Z,54.9671
2023-05-21T04:15:36.132Z,54.9503
2023-05-21T04:16:37.917Z,54.9670
2023-05-21T04:17:39.556Z,54.9618
2023-05-21T04:18:42.450Z,54.9895
2023-05-21T04:19:43.163Z,54.9855
2023-05-21T04:20:44.999Z,55.0577
2023-05-21T04:21:46.829Z,55.1055
2023-05-21T04:22:48.669Z,55.1156
2023-05-21T04:23:50.489Z,55.0647
2023-05-21T04:24:52.337Z,55.0070
2023-05-21T04:25:54.174Z,54.9308
2023-05-21T04:26:56.009Z,54.8845
2023-05-21T04:27:57.858Z,54.8291
2023-05-21T04:28:59.682Z,54.7937
2023-05-21T04:30:01.511Z,54.7883
2023-05-21T04:31:03.388Z,54.7988
2023-05-21T04:32:05.186Z,54.8079
2023-05-21T04:33:07.043Z,54.8103
2023-05-21T04:34:08.842Z,54.8084
2023-05-21T04:35:10.664Z,54.8510
2023-05-21T04:36:12.512Z,54.8838
2023-05-21T04:37:14.316Z,54.8573
2023-05-21T04:38:16.150Z,54.9008
2023-05-21T04:39:17.986Z,54.9212
2023-05-21T04:40:19.821Z,54.9131
2023-05-21T04:41:21.649Z,54.8994
2023-05-21T04:42:23.471Z,54.8895
2023-05-21T04:43:25.330Z,54.9005
2023-05-21T04:44:27.179Z,54.9125
2023-05-21T04:45:28.985Z,54.9146
2023-05-21T04:46:40.295Z,54.8821
2023-05-21T04:47:31.340Z,54.8692
2023-05-21T04:48:32.897Z,54.8579
2023-05-21T04:49:34.488Z,54.8505
2023-05-21T04:50:36.018Z,54.8377
2023-05-21T04:51:37.562Z,54.8882
2023-05-21T04:52:39.160Z,54.9220
2023-05-21T04:53:40.685Z,54.9302
2023-05-21T04:54:42.238Z,54.9261
2023-05-21T04:55:43.793Z,54.8888
2023-05-21T04:56:45.365Z,54.9125
2023-05-21T04:57:46.924Z,54.9231
2023-05-21T04:58:48.487Z,54.9428
2023-05-21T04:59:50.055Z,54.9744
2023-05-21T05:00:51.859Z,54.9794
2023-05-21T05:01:53.568Z,54.9882
2023-05-21T05:02:55.489Z,54.9497
2023-05-21T05:03:57.412Z,54.9198
2023-05-21T05:04:59.105Z,54.9107
2023-05-21T05:06:00.929Z,54.8787
2023-05-21T05:07:02.765Z,54.8916
2023-05-21T05:08:04.576Z,54.8903
2023-05-21T05:09:06.419Z,54.8665
2023-05-21T05:10:08.260Z,54.8256
2023-05-21T05:11:10.075Z,54.8195
2023-05-21T05:12:11.907Z,54.8252
2023-05-21T05:13:13.776Z,54.8123
2023-05-21T05:14:15.568Z,54.7922
2023-05-21T05:15:17.445Z,54.7719
2023-05-21T05:16:19.292Z,54.7477
2023-05-21T05:17:21.084Z,54.7956
2023-05-21T05:18:22.952Z,54.8233
2023-05-21T05:19:24.819Z,54.7758
2023-05-21T05:20:26.605Z,54.7469
2023-05-21T05:21:28.432Z,54.7269
2023-05-21T05:22:30.254Z,54.6857
2023-05-21T05:23:32.102Z,54.7030
2023-05-21T05:24:33.948Z,54.7488
2023-05-21T05:25:35.983Z,54.7308
2023-05-21T05:26:37.625Z,54.7260
2023-05-21T05:27:39.442Z,54.7145
2023-05-21T05:28:41.259Z,54.7192
2023-05-21T05:29:43.091Z,54.6852
2023-05-21T05:30:44.989Z,54.6668
2023-05-21T05:31:46.769Z,54.6876
2023-05-21T05:32:48.632Z,54.6987
2023-05-21T05:33:50.421Z,54.7096
2023-05-21T05:34:52.277Z,54.7325
2023-05-21T05:35:54.099Z,54.7640
2023-05-21T05:36:55.933Z,54.7678
2023-05-21T05:37:57.749Z,54.7754
2023-05-21T05:38:59.585Z,54.7343
2023-05-21T05:40:01.416Z,54.7400
2023-05-21T05:41:11.347Z,54.7478
2023-05-21T05:42:05.101Z,54.7211
2023-05-21T05:43:06.941Z,54.7349
2023-05-21T05:44:10.820Z,54.7299
2023-05-21T05:45:10.580Z,54.7613
2023-05-21T05:46:12.484Z,54.7379
2023-05-21T05:47:14.277Z,54.7360
2023-05-21T05:48:16.094Z,54.7330
2023-05-21T05:49:25.441Z,54.7684
2023-05-21T05:50:19.743Z,54.8022
2023-05-21T05:51:21.647Z,54.8076
2023-05-21T05:52:23.430Z,54.8065
2023-05-21T05:53:25.265Z,54.8193
2023-05-21T05:54:27.096Z,54.7998
2023-05-21T05:55:28.921Z,54.8370
2023-05-21T05:56:30.774Z,54.8438
2023-05-21T05:57:32.579Z,54.8364
2023-05-21T05:58:34.432Z,54.8576
2023-05-21T05:59:36.254Z,54.8938
2023-05-21T06:00:38.114Z,54.9532
2023-05-21T06:01:39.961Z,55.0125
2023-05-21T06:02:41.792Z,54.9888
2023-05-21T06:03:43.731Z,54.9496
2023-05-21T06:04:45.450Z,54.9909
2023-05-21T06:05:47.319Z,55.0434
2023-05-21T06:06:49.122Z,55.0335
2023-05-21T06:07:50.964Z,54.9908
2023-05-21T06:08:52.785Z,54.9735
2023-05-21T06:09:54.599Z,54.9633
2023-05-21T06:10:56.449Z,54.9657
2023-05-21T06:11:58.269Z,54.9632
2023-05-21T06:13:00.135Z,54.9588
2023-05-21T06:14:01.929Z,54.9595
2023-05-21T06:15:03.762Z,54.9915
2023-05-21T06:16:05.629Z,54.9922
2023-05-21T06:17:07.452Z,54.9727
2023-05-21T06:18:09.324Z,54.9886
2023-05-21T06:19:11.185Z,54.9955
2023-05-21T06:20:12.933Z,54.9946
2023-05-21T06:21:14.779Z,54.9967
2023-05-21T06:22:16.591Z,54.9936
2023-05-21T06:23:18.438Z,55.0493
2023-05-21T06:24:20.272Z,55.0255
2023-05-21T06:25:22.139Z,55.0691
2023-05-21T06:26:23.953Z,55.1010
2023-05-21T06:27:25.858Z,55.0651
2023-05-21T06:28:27.586Z,55.0771
2023-05-21T06:29:29.447Z,55.1272
2023-05-21T06:30:31.273Z,55.1552
2023-05-21T06:31:33.175Z,55.2233
2023-05-21T06:32:34.975Z,55.2487
2023-05-21T06:33:36.880Z,55.2291
2023-05-21T06:34:38.615Z,55.2467
2023-05-21T06:35:40.456Z,55.2265
2023-05-21T06:36:42.265Z,55.3219
2023-05-21T06:37:44.100Z,55.3811
2023-05-21T06:38:45.936Z,55.4375
2023-05-21T06:39:47.780Z,55.5051
2023-05-21T06:40:49.605Z,55.5608
2023-05-21T06:41:51.451Z,55.5734
2023-05-21T06:42:53.278Z,55.5657
2023-05-21T06:43:55.094Z,55.5974
2023-05-21T06:44:56.946Z,55.5763
2023-05-21T06:45:58.811Z,55.6064
2023-05-21T06:47:00.607Z,55.6372
2023-05-21T06:48:02.503Z,55.6825
2023-05-21T06:49:04.274Z,55.7001
2023-05-21T06:50:06.094Z,55.7601
2023-05-21T06:51:07.946Z,55.7825
2023-05-21T06:52:17.298Z,55.7790
2023-05-21T06:53:11.624Z,55.7693
2023-05-21T06:54:13.440Z,55.7939
2023-05-21T06:55:15.276Z,55.8621
2023-05-21T06:56:17.135Z,55.9068
2023-05-21T06:57:18.950Z,55.9201
2023-05-21T06:58:20.798Z,55.8995
2023-05-21T06:59:22.654Z,55.9237
2023-05-21T07:00:24.448Z,55.9684
2023-05-21T07:01:26.334Z,55.9797
2023-05-21T07:02:28.186Z,55.9856
2023-05-21T07:03:30.072Z,55.9165
2023-05-21T07:04:31.794Z,55.8958
2023-05-21T07:05:33.631Z,55.8601
2023-05-21T07:06:35.460Z,55.8489
2023-05-21T07:07:37.275Z,55.8305
2023-05-21T07:08:39.138Z,55.8183
2023-05-21T07:09:40.943Z,55.8718
2023-05-21T07:10:42.804Z,55.8694
2023-05-21T07:11:44.627Z,55.8859
2023-05-21T07:12:46.480Z,55.9020
2023-05-21T07:13:48.286Z,55.9006
2023-05-21T07:14:50.114Z,55.9160
2023-05-21T07:15:51.964Z,55.9365
2023-05-21T07:16:53.849Z,55.8928
2023-05-21T07:17:55.628Z,55.9116
2023-05-21T07:18:57.514Z,55.9035
2023-05-21T07:19:59.269Z,55.9310
2023-05-21T07:21:01.107Z,55.9334
2023-05-21T07:22:02.966Z,55.9445
2023-05-21T07:23:04.785Z,55.9181
2023-05-21T07:24:06.629Z,55.8770
2023-05-21T07:25:08.441Z,55.8814
2023-05-21T07:26:10.287Z,55.8262
2023-05-21T07:27:24.855Z,55.8661
2023-05-21T07:28:14.943Z,55.9494
2023-05-21T07:29:15.789Z,55.9202
2023-05-21T07:30:17.618Z,55.9569
2023-05-21T07:31:19.477Z,56.0277
2023-05-21T07:32:21.389Z,56.1154
2023-05-21T07:33:23.167Z,56.1665
2023-05-21T07:34:25.038Z,56.1446
2023-05-21T07:35:26.812Z,56.1356
2023-05-21T07:36:28.641Z,56.1484
2023-05-21T07:37:30.547Z,56.1509
2023-05-21T07:38:32.300Z,56.1336
2023-05-21T07:39:34.160Z,56.1746
2023-05-21T07:40:35.995Z,56.2009
2023-05-21T07:41:37.827Z,56.2432
2023-05-21T07:42:39.654Z,56.3234
2023-05-21T07:43:41.489Z,56.3190
2023-05-21T07:44:43.514Z,56.3540
2023-05-21T07:45:45.172Z,56.3616
2023-05-21T07:46:47.058Z,56.3494
2023-05-21T07:47:48.874Z,56.3779
2023-05-21T07:48:50.675Z,56.3586
2023-05-21T07:49:52.489Z,56.3439
2023-05-21T07:50:54.312Z,56.3779
2023-05-21T07:51:56.171Z,56.4272
2023-05-21T07:52:58.040Z,56.4728
2023-05-21T07:54:07.327Z,56.5317
2023-05-21T07:55:01.688Z,56.5339
2023-05-21T07:56:03.492Z,56.4824
2023-05-21T07:57:05.366Z,56.4509
2023-05-21T07:58:07.175Z,56.4360
2023-05-21T07:59:08.988Z,56.4116
2023-05-21T08:00:10.850Z,56.4296
2023-05-21T08:01:12.648Z,56.4168
2023-05-21T08:02:14.487Z,56.4220
2023-05-21T08:03:16.570Z,56.4711
2023-05-21T08:04:18.226Z,56.5011
2023-05-21T08:05:19.984Z,56.5407
2023-05-21T08:06:21.805Z,56.5971
2023-05-21T08:07:23.651Z,56.6176
2023-05-21T08:08:25.474Z,56.6539
2023-05-21T08:09:27.321Z,56.6635
2023-05-21T08:10:29.157Z,56.6952
2023-05-21T08:11:30.969Z,56.7020
2023-05-21T08:12:32.815Z,56.8486
2023-05-21T08:13:34.622Z,56.8805
2023-05-21T08:14:36.471Z,56.9419
2023-05-21T08:15:38.514Z,57.0127
2023-05-21T08:16:40.284Z,56.9835
2023-05-21T08:17:42.043Z,56.9832
2023-05-21T08:18:43.842Z,56.9348
2023-05-21T08:19:45.665Z,56.9277
2023-05-21T08:20:47.504Z,56.9899
2023-05-21T08:21:51.343Z,57.0781
2023-05-21T08:22:51.162Z,57.1145
2023-05-21T08:23:53.006Z,57.0315
2023-05-21T08:24:54.811Z,56.9979
2023-05-21T08:25:56.670Z,57.0196
2023-05-21T08:26:58.513Z,57.1262
2023-05-21T08:28:00.311Z,57.2118
2023-05-21T08:29:02.163Z,57.2570
2023-05-21T08:30:03.984Z,57.2547
2023-05-21T08:31:05.822Z,57.3207
2023-05-21T08:32:07.788Z,57.4017
2023-05-21T08:33:09.527Z,57.4938
2023-05-21T08:34:11.321Z,57.6154
2023-05-21T08:35:13.182Z,57.6835
2023-05-21T08:36:15.141Z,57.7499
2023-05-21T08:37:16.805Z,57.7819
2023-05-21T08:38:18.653Z,57.7691
2023-05-21T08:39:20.490Z,57.7401
2023-05-21T08:40:22.325Z,57.6942
2023-05-21T08:41:24.160Z,57.6422
2023-05-21T08:42:36.385Z,57.5585
2023-05-21T08:43:30.953Z,57.5180
2023-05-21T08:44:31.480Z,57.5536
2023-05-21T08:45:33.048Z,57.5667
2023-05-21T08:46:34.649Z,57.6496
2023-05-21T08:47:36.251Z,57.7605
2023-05-21T08:48:37.695Z,57.8683
2023-05-21T08:49:46.754Z,57.9269
2023-05-21T08:50:40.824Z,57.9507
2023-05-21T08:51:42.488Z,57.9338
2023-05-21T08:52:44.326Z,57.8826
2023-05-21T08:53:46.130Z,57.8039
2023-05-21T08:54:47.949Z,57.7854
2023-05-21T08:55:51.697Z,57.8753
2023-05-21T08:56:59.427Z,57.9674
2023-05-21T08:57:53.454Z,57.9920
2023-05-21T08:58:55.367Z,57.9738
2023-05-21T08:59:57.126Z,57.9950
2023-05-21T09:00:59.008Z,57.9868
2023-05-21T09:02:00.858Z,58.0038
2023-05-21T09:03:02.672Z,58.0231
2023-05-21T09:04:18.957Z,58.0395
2023-05-21T09:05:08.338Z,58.1008
2023-05-21T09:06:08.892Z,58.1468
2023-05-21T09:07:10.502Z,58.1208
2023-05-21T09:08:12.019Z,58.0524
2023-05-21T09:09:13.645Z,57.9896
2023-05-21T09:10:15.480Z,58.0240
2023-05-21T09:11:17.309Z,58.1342
2023-05-21T09:12:19.166Z,58.2724
2023-05-21T09:13:20.995Z,58.3152
2023-05-21T09:14:22.848Z,58.3306
2023-05-21T09:15:24.659Z,58.3848
2023-05-21T09:16:26.498Z,58.3463
2023-05-21T09:17:28.333Z,58.2971
2023-05-21T09:18:30.134Z,58.2439
2023-05-21T09:19:32.044Z,58.1834
2023-05-21T09:20:33.842Z,58.0916
2023-05-21T09:21:35.646Z,58.0261
2023-05-21T09:22:37.489Z,58.0221
2023-05-21T09:23:39.313Z,57.9854
2023-05-21T09:24:41.158Z,58.0287
2023-05-21T09:25:42.973Z,58.1170
2023-05-21T09:26:44.815Z,58.1325
2023-05-21T09:27:46.660Z,58.1339
2023-05-21T09:28:48.497Z,58.0974
2023-05-21T09:29:50.335Z,58.1015
2023-05-21T09:30:52.158Z,58.1147
2023-05-21T09:31:54.105Z,58.0458
2023-05-21T09:32:55.914Z,58.0113
2023-05-21T09:33:57.668Z,57.9084
2023-05-21T09:34:59.496Z,57.8852
2023-05-21T09:36:01.323Z,57.9014
2023-05-21T09:37:04.990Z,57.8961
2023-05-21T09:38:05.015Z,57.8866
2023-05-21T09:39:06.832Z,57.8869
2023-05-21T09:40:08.660Z,57.8373
2023-05-21T09:41:10.500Z,57.7738
2023-05-21T09:42:12.338Z,57.7130
2023-05-21T09:43:14.184Z,57.7294
2023-05-21T09:44:16.023Z,57.6708
2023-05-21T09:45:17.876Z,57.6381
2023-05-21T09:46:19.718Z,57.6047
2023-05-21T09:47:21.578Z,57.6171
2023-05-21T09:48:23.359Z,57.5455
2023-05-21T09:49:25.246Z,57.4927
2023-05-21T09:50:27.016Z,57.5047
2023-05-21T09:51:28.872Z,57.4658
2023-05-21T09:52:30.718Z,57.4421
2023-05-21T09:53:32.546Z,57.4443
2023-05-21T09:54:34.379Z,57.4390
2023-05-21T09:55:36.213Z,57.3922
2023-05-21T09:56:38.056Z,57.4079
2023-05-21T09:57:39.870Z,57.4553
2023-05-21T09:58:41.732Z,57.4714
2023-05-21T09:59:51.084Z,57.5177
2023-05-21T10:00:45.637Z,57.5047
2023-05-21T10:01:47.294Z,57.5240
2023-05-21T10:02:49.125Z,57.5527
2023-05-21T10:03:50.934Z,57.5546
2023-05-21T10:04:52.764Z,57.5516
2023-05-21T10:05:54.588Z,57.5593
2023-05-21T10:06:56.403Z,57.5788
2023-05-21T10:07:58.246Z,57.5333
2023-05-21T10:09:00.842Z,57.5748
2023-05-21T10:10:01.935Z,57.5774
2023-05-21T10:11:03.758Z,57.5978
2023-05-21T10:12:05.596Z,57.5389
2023-05-21T10:13:07.441Z,57.4972
2023-05-21T10:14:09.299Z,57.5351
2023-05-21T10:15:11.106Z,57.6326
2023-05-21T10:16:12.978Z,57.6444
2023-05-21T10:17:14.761Z,57.6638
2023-05-21T10:18:16.619Z,57.7231
2023-05-21T10:19:18.495Z,57.7225
2023-05-21T10:20:20.270Z,57.7681
2023-05-21T10:21:22.090Z,57.8440
2023-05-21T10:22:23.934Z,57.7876
2023-05-21T10:23:25.772Z,57.6843
2023-05-21T10:24:27.619Z,57.6805
2023-05-21T10:25:29.421Z,57.6495
2023-05-21T10:26:31.259Z,57.6231
2023-05-21T10:27:33.148Z,57.6207
2023-05-21T10:28:34.946Z,57.6288
2023-05-21T10:29:36.797Z,57.6747
2023-05-21T10:30:38.862Z,57.7448
2023-05-21T10:31:40.451Z,57.6896
2023-05-21T10:32:42.358Z,57.6785
2023-05-21T10:33:44.129Z,57.7347
2023-05-21T10:34:45.976Z,57.6808
2023-05-21T10:35:47.799Z,57.6451
2023-05-21T10:36:49.607Z,57.6383
2023-05-21T10:37:51.443Z,57.6334
2023-05-21T10:38:53.334Z,57.6157
2023-05-21T10:39:55.141Z,57.5982
2023-05-21T10:40:56.955Z,57.6105
2023-05-21T10:41:59.309Z,57.5473
2023-05-21T10:43:00.622Z,57.4799
2023-05-21T10:44:02.448Z,57.3888
2023-05-21T10:45:04.355Z,57.3138
2023-05-21T10:46:06.200Z,57.2294
2023-05-21T10:47:07.972Z,57.2148
2023-05-21T10:48:09.832Z,57.2403
2023-05-21T10:49:11.637Z,57.2426
2023-05-21T10:50:13.473Z,57.1923
2023-05-21T10:51:15.288Z,57.2547
2023-05-21T10:52:17.122Z,57.2766
2023-05-21T10:53:18.975Z,57.3187
2023-05-21T10:54:20.805Z,57.3286
2023-05-21T10:55:22.693Z,57.3131
2023-05-21T10:56:24.461Z,57.3316
2023-05-21T10:57:26.319Z,57.3049
2023-05-21T10:58:30.048Z,57.2969
2023-05-21T10:59:29.982Z,57.2387
2023-05-21T11:00:31.833Z,57.2901
2023-05-21T11:01:33.686Z,57.1960
2023-05-21T11:02:43.124Z,57.1005
2023-05-21T11:03:38.092Z,57.0432
2023-05-21T11:04:39.143Z,57.0030
2023-05-21T11:05:40.988Z,57.0075
2023-05-21T11:06:42.810Z,57.0016
2023-05-21T11:07:44.661Z,57.0058
2023-05-21T11:08:46.480Z,56.9940
2023-05-21T11:09:48.326Z,56.9854
2023-05-21T11:10:50.159Z,57.0073
2023-05-21T11:11:51.988Z,57.0622
2023-05-21T11:12:53.804Z,57.0608
2023-05-21T11:13:55.656Z,57.0452
2023-05-21T11:14:57.487Z,57.1112
2023-05-21T11:15:59.409Z,57.1276
2023-05-21T11:17:01.219Z,57.0831
2023-05-21T11:18:03.029Z,56.9938
2023-05-21T11:19:04.854Z,56.9647
2023-05-21T11:20:06.628Z,56.9033
2023-05-21T11:21:08.473Z,56.8714
2023-05-21T11:22:10.322Z,56.8652
2023-05-21T11:23:12.130Z,56.8436
2023-05-21T11:24:13.974Z,56.7886
2023-05-21T11:25:15.797Z,56.8087
2023-05-21T11:26:17.635Z,56.8209
2023-05-21T11:27:19.491Z,56.8525
2023-05-21T11:28:21.291Z,56.8559
2023-05-21T11:29:23.128Z,56.8920
2023-05-21T11:30:24.959Z,56.9190
2023-05-21T11:31:26.939Z,56.9528
2023-05-21T11:32:28.746Z,56.8950
2023-05-21T11:33:30.465Z,56.8075
2023-05-21T11:34:32.291Z,56.7317
2023-05-21T11:35:34.138Z,56.6304
2023-05-21T11:36:36.230Z,56.6141
2023-05-21T11:37:37.887Z,56.4772
2023-05-21T11:38:39.760Z,56.3531
2023-05-21T11:39:41.550Z,56.2538
2023-05-21T11:40:43.372Z,56.0546
2023-05-21T11:41:45.259Z,55.9125
2023-05-21T11:42:47.069Z,55.8426
2023-05-21T11:43:48.916Z,56.0157
2023-05-21T11:44:50.736Z,56.0049
2023-05-21T11:45:52.564Z,55.9992
2023-05-21T11:46:54.427Z,55.9956
2023-05-21T11:47:56.336Z,56.1992
2023-05-21T11:48:58.101Z,56.2120
2023-05-21T11:49:59.926Z,56.1336
2023-05-21T11:51:01.735Z,56.0965
2023-05-21T11:52:03.632Z,56.0595
2023-05-21T11:53:05.409Z,56.0266
2023-05-21T11:54:07.240Z,55.9899
2023-05-21T11:55:16.600Z,55.9053
2023-05-21T11:56:10.918Z,55.7807
2023-05-21T11:57:12.759Z,55.6904
2023-05-21T11:58:14.581Z,55.6226
2023-05-21T11:59:18.705Z,55.5084
2023-05-21T12:00:18.275Z,55.4787
2023-05-21T12:01:20.098Z,55.3603
2023-05-21T12:02:21.976Z,55.1978
2023-05-21T12:03:23.859Z,54.8340
2023-05-21T12:04:25.595Z,54.5110
2023-05-21T12:05:27.453Z,54.3536
2023-05-21T12:06:29.374Z,54.2065
2023-05-21T12:07:31.253Z,54.0692
2023-05-21T12:08:32.919Z,53.9956
2023-05-21T12:09:34.796Z,53.9706
2023-05-21T12:10:36.747Z,54.0958
2023-05-21T12:11:38.416Z,54.1539
2023-05-21T12:12:53.229Z,54.2052
2023-05-21T12:13:45.305Z,54.2122
2023-05-21T12:14:45.813Z,54.1102
2023-05-21T12:15:47.366Z,54.1009
2023-05-21T12:16:48.947Z,54.0837
2023-05-21T12:17:50.534Z,54.1025
2023-05-21T12:18:52.075Z,54.0726
2023-05-21T12:19:53.626Z,54.0936
2023-05-21T12:20:55.147Z,54.0207
2023-05-21T12:21:56.756Z,54.0564
2023-05-21T12:22:58.636Z,53.9743
2023-05-21T12:24:00.441Z,53.9163
2023-05-21T12:25:02.276Z,53.8958
2023-05-21T12:26:04.118Z,53.8422
2023-05-21T12:27:05.929Z,53.7611